Niagara College

*Note: All times are displayed in the local standard time of the station location.
**Rain - Equipment is designed to accurately record liquid precipitation; under conditions when precipitation is not in liquid form, the data displayed may not properly reflect rainfall values.

Date Max Temp
(°C)
Min Temp
(°C)
Avg Temp
(°C)
Rain (mm) Avg RH (%)
Fri, Dec 14, 2018 6.7 1.9 4.1 1.6 80.4
Thu, Dec 13, 2018 6.8 -0.2 2.3 0.8 85.9
Wed, Dec 12, 2018 1.6 -4.2 -0.5 0.4 83.7
Tue, Dec 11, 2018 0.2 -1.6 -1.0 0.0 81.7
Mon, Dec 10, 2018 1.4 -2.4 -0.5 0.0 78.3
Sun, Dec 09, 2018 0.8 -6.8 -2.7 0.0 74.8
Sat, Dec 08, 2018 -0.1 -5.9 -3.2 0.0 75.0
DateTime Avg Temp (°C) Rain (mm) RH (%)
Sat, Dec 15, 2018 17:00 3.0 0.0 87.2
Sat, Dec 15, 2018 16:00 3.4 0.0 86.2
Sat, Dec 15, 2018 15:00 3.8 0.0 84.3
Sat, Dec 15, 2018 14:00 4.2 0.0 81.4
Sat, Dec 15, 2018 13:00 4.1 0.0 81.0
Sat, Dec 15, 2018 12:00 3.5 0.0 85.3
Sat, Dec 15, 2018 11:00 3.0 0.0 92.2
Sat, Dec 15, 2018 10:00 2.4 0.0 96.7
Sat, Dec 15, 2018 09:00 1.9 0.0 98.9
Sat, Dec 15, 2018 08:00 1.4 0.0 99.9
Sat, Dec 15, 2018 07:00 1.9 0.0 99.9
Sat, Dec 15, 2018 06:00 1.5 0.0 99.7
Sat, Dec 15, 2018 05:00 0.4 0.0 98.9
Sat, Dec 15, 2018 04:00 0.9 0.0 97.0
Sat, Dec 15, 2018 03:00 3.0 0.0 91.1
Sat, Dec 15, 2018 02:00 3.9 0.0 86.5
Sat, Dec 15, 2018 01:00 4.2 0.0 85.4
Sat, Dec 15, 2018 00:00 4.9 0.0 83.6
Fri, Dec 14, 2018 23:00 4.8 0.0 83.7
Fri, Dec 14, 2018 22:00 4.9 0.0 81.2
Fri, Dec 14, 2018 21:00 5.0 0.0 80.3
Fri, Dec 14, 2018 20:00 4.7 0.0 83.3
Fri, Dec 14, 2018 19:00 3.9 0.0 81.7
Fri, Dec 14, 2018 18:00 3.6 0.0 80.6
Fri, Dec 14, 2018 17:00 5.6 0.0 73.7
Fri, Dec 14, 2018 16:00 6.5 0.0 70.1
Fri, Dec 14, 2018 15:00 6.2 0.0 73.4
Fri, Dec 14, 2018 14:00 5.5 0.0 78.5
Fri, Dec 14, 2018 13:00 4.8 0.0 80.9
Fri, Dec 14, 2018 12:00 4.2 0.2 87.0
Fri, Dec 14, 2018 11:00 4.1 1.0 87.1
Fri, Dec 14, 2018 10:00 4.2 0.2 79.7
Fri, Dec 14, 2018 09:00 4.1 0.0 77.5
Fri, Dec 14, 2018 08:00 3.9 0.2 78.4
Fri, Dec 14, 2018 07:00 3.4 0.0 79.3
Fri, Dec 14, 2018 06:00 3.0 0.0 80.1
Fri, Dec 14, 2018 05:00 2.6 0.0 80.3
Fri, Dec 14, 2018 04:00 2.6 0.0 79.7
Fri, Dec 14, 2018 03:00 2.2 0.0 81.6
Fri, Dec 14, 2018 02:00 2.0 0.0 84.1
Fri, Dec 14, 2018 01:00 2.2 0.0 83.5
Fri, Dec 14, 2018 00:00 2.5 0.0 81.7
Thu, Dec 13, 2018 23:00 2.8 0.0 79.6
Thu, Dec 13, 2018 22:00 1.8 0.0 85.8
Thu, Dec 13, 2018 21:00 1.9 0.0 89.0
Thu, Dec 13, 2018 20:00 2.8 0.0 83.1
Thu, Dec 13, 2018 19:00 2.2 0.0 88.7
Thu, Dec 13, 2018 18:00 2.5 0.0 87.8


asterix Register now to access more data! asterix